RJTH(METAR)
04/14 17:00
RJTH 140800Z 27008KT 9999 FEW032 BKNXXX 19/15 Q1005 RMK A2969=
戻る
トップページへ戻る
IMOC Co,.Ltd.